Time;durP1;ratioP1;P1;durP2;ratioP2;P2;SDS_P1;SDS_P2;PMS_P1;PMS_P2;Temp;Humidity;BMP_temperature;BMP_pressure;BME280_temperature;BME280_humidity;BME280_pressure;Samples;Min_cycle;Max_cycle;Signal;HPM_P1;HPM_P2
2021/03/05 00:01:56;;;;;;;29.83;16.98;;;;;;;2.18;83.25;100851.69;5054590;28;20118;-70
2021/03/05 00:04:22;;;;;;;33.90;18.17;;;;;;;2.12;83.46;100854.09;5054453;28;20072;-70
2021/03/05 00:06:47;;;;;;;29.75;16.77;;;;;;;2.08;84.06;100852.22;5054219;28;20072;-70
2021/03/05 00:09:12;;;;;;;31.75;16.98;;;;;;;2.14;83.39;100856.72;5054653;28;20033;-70
2021/03/05 00:11:38;;;;;;;31.60;16.73;;;;;;;2.19;83.80;100845.63;5054400;28;20040;-69
2021/03/05 00:14:03;;;;;;;26.50;15.95;;;;;;;2.34;83.49;100850.47;5054301;28;20039;-69
2021/03/05 00:16:29;;;;;;;25.80;15.75;;;;;;;2.27;83.50;100853.69;5054109;28;20037;-69
2021/03/05 00:18:54;;;;;;;28.10;15.70;;;;;;;2.33;83.52;100847.78;5054259;28;20063;-70
2021/03/05 00:21:19;;;;;;;27.60;16.60;;;;;;;2.33;82.78;100848.69;5054338;28;20037;-69
2021/03/05 00:23:44;;;;;;;26.40;15.30;;;;;;;2.34;83.01;100849.59;5054168;28;20403;-70
2021/03/05 00:26:10;;;;;;;22.70;13.52;;;;;;;2.39;83.48;100855.81;5054040;28;20041;-70
2021/03/05 00:28:35;;;;;;;29.15;15.68;;;;;;;2.39;82.94;100863.63;5054119;28;20033;-70
2021/03/05 00:31:00;;;;;;;22.90;12.95;;;;;;;2.46;82.72;100860.38;5054061;28;20029;-69
2021/03/05 00:33:26;;;;;;;23.77;13.90;;;;;;;2.43;83.30;100860.28;5053950;28;20040;-70
2021/03/05 00:35:52;;;;;;;25.73;13.93;;;;;;;2.44;82.93;100867.28;5053795;28;20116;-70
2021/03/05 00:38:17;;;;;;;22.08;13.05;;;;;;;2.41;82.60;100860.25;5054070;28;20033;-70
2021/03/05 00:40:42;;;;;;;23.48;14.13;;;;;;;2.37;83.30;100862.69;5053841;28;20044;-69
2021/03/05 00:43:08;;;;;;;23.42;14.23;;;;;;;2.38;83.38;100856.63;5053837;28;20049;-69
2021/03/05 00:45:33;;;;;;;24.38;14.43;;;;;;;2.38;83.32;100860.16;5053505;28;20041;-70
2021/03/05 00:47:59;;;;;;;27.02;15.00;;;;;;;2.43;83.39;100865.50;5035864;28;20037;-70
2021/03/05 00:50:24;;;;;;;25.80;14.32;;;;;;;2.45;83.40;100871.63;5053665;28;20506;-70
2021/03/05 00:52:51;;;;;;;26.25;14.82;;;;;;;2.41;83.47;100867.16;5038016;28;20138;-70
2021/03/05 00:55:19;;;;;;;23.75;14.77;;;;;;;2.41;83.50;100868.06;5035576;28;20032;-70
2021/03/05 00:57:47;;;;;;;22.30;13.50;;;;;;;2.38;83.52;100867.06;5045549;28;20445;-70
2021/03/05 01:00:15;;;;;;;26.63;15.52;;;;;;;2.37;83.40;100866.19;5053192;28;20083;-70
2021/03/05 01:02:42;;;;;;;28.42;16.23;;;;;;;2.33;83.59;100868.63;5053227;28;20037;-70
2021/03/05 01:05:08;;;;;;;27.05;15.63;;;;;;;2.34;83.80;100867.81;5059824;28;20035;-70
2021/03/05 01:07:34;;;;;;;27.30;14.73;;;;;;;2.39;83.66;100864.53;5053489;28;20112;-70
2021/03/05 01:10:00;;;;;;;33.10;17.98;;;;;;;2.41;83.71;100872.38;5053347;28;20032;-70
2021/03/05 01:12:25;;;;;;;28.92;16.92;;;;;;;2.42;83.83;100872.44;5053328;28;20041;-70
2021/03/05 01:14:52;;;;;;;29.05;15.55;;;;;;;2.46;83.99;100870.78;5052531;28;20437;-70
2021/03/05 01:17:17;;;;;;;29.15;16.38;;;;;;;2.49;83.13;100881.34;5052772;28;20078;-70
2021/03/05 01:19:43;;;;;;;30.10;16.33;;;;;;;2.48;83.54;100874.34;5052924;28;20021;-70
2021/03/05 01:22:08;;;;;;;26.17;15.55;;;;;;;2.56;83.13;100879.78;5053101;28;20111;-69
2021/03/05 01:24:33;;;;;;;29.00;15.82;;;;;;;2.50;83.31;100877.00;5052950;28;20037;-69
2021/03/05 01:26:59;;;;;;;27.33;16.50;;;;;;;2.49;83.46;100881.34;5052703;28;20056;-69
2021/03/05 01:29:24;;;;;;;27.83;16.38;;;;;;;2.55;83.51;100881.53;5052923;28;20112;-70
2021/03/05 01:31:49;;;;;;;25.80;15.10;;;;;;;2.55;82.78;100871.09;5052957;28;20067;-69
2021/03/05 01:34:15;;;;;;;30.45;17.08;;;;;;;2.47;83.57;100875.19;5052837;28;20037;-70
2021/03/05 01:36:40;;;;;;;26.30;15.68;;;;;;;2.52;83.45;100868.41;5052527;28;20037;-70
2021/03/05 01:39:06;;;;;;;32.28;18.52;;;;;;;2.51;83.83;100871.81;5053057;28;20502;-70
2021/03/05 01:41:32;;;;;;;26.13;15.95;;;;;;;2.55;83.46;100860.69;5052707;28;20029;-69
2021/03/05 01:43:58;;;;;;;30.33;16.83;;;;;;;2.59;83.55;100865.16;5052480;28;20110;-69
2021/03/05 01:46:24;;;;;;;29.30;16.00;;;;;;;2.52;83.96;100868.41;5052329;28;20033;-70
2021/03/05 01:48:50;;;;;;;27.10;15.23;;;;;;;2.54;83.45;100868.44;5052492;28;20104;-69
2021/03/05 01:51:23;;;;;;;29.88;17.70;;;;;;;2.48;83.86;100874.34;5052464;28;20037;-70
2021/03/05 01:53:49;;;;;;;33.05;17.95;;;;;;;2.48;83.45;100876.94;5052508;28;20043;-69
2021/03/05 01:56:34;;;;;;;30.15;18.27;;;;;;;2.52;83.88;100872.75;5052440;28;20060;-70
2021/03/05 01:59:01;;;;;;;31.27;17.23;;;;;;;2.60;82.84;100874.75;5044415;28;20087;-70
2021/03/05 02:01:28;;;;;;;29.73;17.35;;;;;;;2.48;83.58;100878.66;5052412;28;20495;-70
2021/03/05 02:03:53;;;;;;;32.15;18.13;;;;;;;2.50;83.85;100877.88;5051550;28;20037;-70
2021/03/05 02:06:20;;;;;;;33.28;17.35;;;;;;;2.47;83.64;100877.78;5052161;28;20055;-70
2021/03/05 02:08:45;;;;;;;27.75;15.75;;;;;;;2.45;83.59;100878.59;5052207;28;20094;-70
2021/03/05 02:11:11;;;;;;;30.30;16.00;;;;;;;2.45;83.58;100879.47;5052196;28;20057;-70
2021/03/05 02:13:36;;;;;;;24.02;14.82;;;;;;;2.47;83.58;100877.78;5052068;28;20396;-70
2021/03/05 02:16:11;;;;;;;32.20;17.40;;;;;;;2.41;83.74;100873.28;5051951;28;20041;-70
2021/03/05 02:18:52;;;;;;;35.78;17.50;;;;;;;2.42;83.58;100879.38;5052015;28;20025;-70
2021/03/05 02:21:32;;;;;;;28.45;15.57;;;;;;;2.48;83.20;100883.88;5052104;28;20037;-70
2021/03/05 02:24:28;;;;;;;30.98;16.10;;;;;;;2.46;83.76;100886.44;5051954;28;20032;-70
2021/03/05 02:27:04;;;;;;;31.67;15.95;;;;;;;2.44;83.54;100887.22;5034109;28;20422;-70
2021/03/05 02:29:56;;;;;;;28.85;14.25;;;;;;;2.46;83.41;100893.34;5051840;28;20040;-70
2021/03/05 02:32:29;;;;;;;27.13;14.70;;;;;;;2.42;83.92;100890.66;5046904;28;20467;-70
2021/03/05 02:34:54;;;;;;;27.20;16.20;;;;;;;2.42;83.43;100905.41;5051781;28;20041;-69
2021/03/05 02:37:23;;;;;;;25.55;13.45;;;;;;;2.48;83.30;100903.00;5051654;28;20578;-69
2021/03/05 02:40:00;;;;;;;31.48;17.58;;;;;;;2.46;83.59;100901.19;5051763;28;20025;-70
2021/03/05 02:42:37;;;;;;;27.85;15.05;;;;;;;2.48;82.98;100905.59;5051809;28;20051;-70
2021/03/05 02:45:07;;;;;;;25.27;13.77;;;;;;;2.53;83.20;100911.84;5043730;28;20040;-70
2021/03/05 02:47:33;;;;;;;29.00;15.93;;;;;;;2.48;83.52;100908.22;5051747;28;20034;-69
2021/03/05 02:50:01;;;;;;;31.25;15.25;;;;;;;2.56;83.10;100914.56;5043336;28;20044;-69
2021/03/05 02:52:30;;;;;;;25.75;13.75;;;;;;;2.56;82.65;100924.97;5051528;28;20044;-70
2021/03/05 02:54:58;;;;;;;24.02;14.25;;;;;;;2.54;82.75;100926.66;5051404;28;20036;-69
2021/03/05 02:57:27;;;;;;;25.10;14.38;;;;;;;2.48;82.92;100926.44;5051403;28;20083;-70
2021/03/05 02:59:55;;;;;;;26.63;14.65;;;;;;;2.40;83.03;100927.91;5053807;28;20041;-70
2021/03/05 03:02:23;;;;;;;19.30;11.10;;;;;;;2.38;82.04;100932.19;5051311;28;20044;-70
2021/03/05 03:04:50;;;;;;;13.23;7.70;;;;;;;2.24;81.09;100936.06;5051230;28;20033;-70
2021/03/05 03:07:15;;;;;;;15.55;7.25;;;;;;;2.10;80.62;100944.28;5051004;28;20478;-70
2021/03/05 03:09:42;;;;;;;17.70;9.15;;;;;;;2.05;82.27;100939.75;5051155;28;20029;-70
2021/03/05 03:12:09;;;;;;;15.80;8.85;;;;;;;2.05;81.08;100944.97;5051223;28;20558;-70
2021/03/05 03:14:39;;;;;;;15.38;9.10;;;;;;;2.09;82.04;100952.03;5050903;28;20109;-70
2021/03/05 03:17:07;;;;;;;16.88;8.50;;;;;;;2.25;81.57;100958.66;5051019;28;20036;-70
2021/03/05 03:19:34;;;;;;;13.80;7.78;;;;;;;2.25;80.43;100961.25;5050988;28;20037;-70
2021/03/05 03:22:01;;;;;;;12.18;7.75;;;;;;;2.28;80.02;100966.56;5042991;28;20033;-70
2021/03/05 03:24:26;;;;;;;13.65;7.75;;;;;;;2.25;80.46;100966.47;5051127;28;20033;-69
2021/03/05 03:26:52;;;;;;;16.38;9.05;;;;;;;2.26;80.38;100966.53;5050887;28;20119;-69
2021/03/05 03:29:18;;;;;;;15.48;8.93;;;;;;;2.29;80.60;100971.84;5050876;28;20032;-70
2021/03/05 03:31:44;;;;;;;14.20;8.35;;;;;;;2.22;80.57;100975.06;5050967;28;20045;-69
2021/03/05 03:34:10;;;;;;;17.77;8.93;;;;;;;2.21;81.09;100982.84;5050896;28;20033;-69
2021/03/05 03:36:37;;;;;;;15.48;8.90;;;;;;;2.25;80.90;100984.69;5050776;28;20099;-69
2021/03/05 03:39:07;;;;;;;14.00;8.65;;;;;;;2.28;80.70;100979.59;5051003;28;20035;-70
2021/03/05 03:41:34;;;;;;;13.70;8.65;;;;;;;2.26;80.57;100994.31;5051071;28;20033;-69
2021/03/05 03:43:59;;;;;;;14.98;8.75;;;;;;;2.22;80.25;100998.50;5042572;28;20041;-70
2021/03/05 03:46:25;;;;;;;12.73;8.45;;;;;;;2.16;80.24;100993.97;5050477;28;20041;-70
2021/03/05 03:48:58;;;;;;;15.27;8.90;;;;;;;2.21;79.82;101001.06;5032756;28;20041;-70
2021/03/05 03:51:25;;;;;;;;;;;;;;;2.05;79.57;101003.13;5051355;28;20028;-70
2021/03/05 03:53:52;;;;;;;15.70;8.30;;;;;;;2.02;79.58;100997.81;5050796;28;19916;-70
2021/03/05 03:56:19;;;;;;;13.65;8.52;;;;;;;1.95;80.01;101012.31;5050546;28;20582;-69
2021/03/05 03:58:48;;;;;;;14.45;8.15;;;;;;;1.94;80.50;101014.88;5050732;28;20430;-69
2021/03/05 04:01:16;;;;;;;16.83;7.85;;;;;;;1.96;80.48;101013.19;5050605;28;20029;-70
2021/03/05 04:03:45;;;;;;;16.75;9.95;;;;;;;1.94;80.80;101023.56;5050685;28;20041;-70
2021/03/05 04:06:11;;;;;;;11.98;8.20;;;;;;;1.93;80.16;101028.69;5050342;28;20102;-70
2021/03/05 04:08:42;;;;;;;18.50;10.32;;;;;;;2.01;79.84;101027.25;5050732;28;20036;-70
2021/03/05 04:11:09;;;;;;;14.40;9.02;;;;;;;2.09;79.43;101031.03;5050554;28;20033;-69
2021/03/05 04:13:40;;;;;;;14.13;8.60;;;;;;;2.11;79.46;101045.00;5050523;28;20379;-70
2021/03/05 04:16:06;;;;;;;15.37;9.03;;;;;;;2.15;79.22;101040.81;5046138;28;20560;-70
2021/03/05 04:18:36;;;;;;;12.48;7.78;;;;;;;2.17;78.55;101045.22;5050440;28;20116;-70
2021/03/05 04:21:08;;;;;;;11.90;6.47;;;;;;;2.28;78.14;101053.44;5042707;28;20094;-70
2021/03/05 04:23:35;;;;;;;12.40;7.45;;;;;;;2.27;77.92;101055.97;5050984;28;20041;-70
2021/03/05 04:26:00;;;;;;;11.65;7.20;;;;;;;2.24;78.11;101055.84;5042448;28;20387;-70
2021/03/05 04:28:26;;;;;;;11.65;6.85;;;;;;;2.20;77.57;101054.84;5053481;28;20033;-69
2021/03/05 04:30:51;;;;;;;13.60;7.18;;;;;;;2.11;77.76;101064.94;5054034;28;20083;-70
2021/03/05 04:33:16;;;;;;;9.73;6.50;;;;;;;2.01;77.84;101066.31;5054121;28;20075;-70
2021/03/05 04:35:41;;;;;;;11.95;6.28;;;;;;;1.92;78.34;101068.59;5053633;28;20045;-70
2021/03/05 04:38:07;;;;;;;12.75;6.10;;;;;;;1.93;78.42;101071.22;5053960;28;20037;-70
2021/03/05 04:40:32;;;;;;;12.40;6.20;;;;;;;1.94;78.20;101077.34;5053809;28;20036;-69
2021/03/05 04:42:57;;;;;;;10.73;5.57;;;;;;;1.87;78.23;101065.81;5053849;28;20108;-69
2021/03/05 04:45:23;;;;;;;10.90;5.57;;;;;;;1.84;77.79;101067.41;5053549;28;20044;-70
2021/03/05 04:47:48;;;;;;;9.13;6.00;;;;;;;1.80;77.34;101086.34;5053787;28;20037;-69
2021/03/05 04:50:14;;;;;;;12.50;6.22;;;;;;;1.77;78.37;101088.81;5053602;28;20037;-69
2021/03/05 04:52:39;;;;;;;11.07;6.10;;;;;;;1.75;78.26;101084.44;5053683;28;20049;-70
2021/03/05 04:55:06;;;;;;;17.63;6.90;;;;;;;1.67;78.86;101092.78;5053225;28;20040;-70
2021/03/05 04:57:31;;;;;;;13.20;6.07;;;;;;;1.67;78.56;101096.25;5056272;28;20032;-70
2021/03/05 04:59:56;;;;;;;10.90;5.90;;;;;;;1.62;79.20;101097.78;5053561;28;20036;-69
2021/03/05 05:02:22;;;;;;;10.10;5.80;;;;;;;1.55;79.10;101108.81;5053474;28;20124;-70
2021/03/05 05:04:47;;;;;;;12.57;5.18;;;;;;;1.48;78.56;101107.66;5053383;28;20119;-70
2021/03/05 05:07:12;;;;;;;13.77;5.77;;;;;;;1.34;79.06;101111.44;5053241;28;20067;-70
2021/03/05 05:09:38;;;;;;;12.20;6.53;;;;;;;1.29;78.98;101113.84;5053184;28;20025;-70
2021/03/05 05:12:03;;;;;;;10.60;6.33;;;;;;;1.24;79.85;101117.97;5053327;28;20043;-70
2021/03/05 05:14:29;;;;;;;13.10;6.97;;;;;;;1.20;80.58;101126.47;5053233;28;20033;-70
2021/03/05 05:16:54;;;;;;;13.50;7.60;;;;;;;1.17;80.47;101134.13;5053094;28;20037;-70
2021/03/05 05:19:19;;;;;;;13.13;7.37;;;;;;;1.12;81.07;101138.25;5053066;28;20036;-69
2021/03/05 05:21:45;;;;;;;13.63;7.10;;;;;;;1.09;80.79;101144.22;5053169;28;20125;-70
2021/03/05 05:24:10;;;;;;;11.70;7.57;;;;;;;0.99;81.36;101142.06;5052994;28;20048;-70
2021/03/05 05:26:36;;;;;;;13.27;8.20;;;;;;;0.98;81.70;101140.28;5052638;28;20040;-70
2021/03/05 05:29:01;;;;;;;8.73;6.03;;;;;;;0.99;80.89;101147.25;5053010;28;20039;-70
2021/03/05 05:31:26;;;;;;;12.63;6.60;;;;;;;0.88;81.44;101149.41;5052911;28;20037;-70
2021/03/05 05:33:52;;;;;;;11.27;6.60;;;;;;;0.80;81.47;101143.00;5052836;28;20037;-70
2021/03/05 05:36:17;;;;;;;12.07;5.60;;;;;;;0.71;81.45;101154.69;5052663;28;20133;-70
2021/03/05 05:38:42;;;;;;;13.00;6.17;;;;;;;0.63;81.42;101159.56;5052807;28;20107;-70
2021/03/05 05:41:08;;;;;;;12.53;6.70;;;;;;;0.67;81.33;101168.38;5052653;28;20180;-70
2021/03/05 05:43:33;;;;;;;11.57;6.27;;;;;;;0.68;81.23;101165.81;5052063;28;20387;-70
2021/03/05 05:46:04;;;;;;;12.03;6.23;;;;;;;0.63;81.21;101172.56;5051697;28;20073;-70
2021/03/05 05:48:32;;;;;;;12.27;6.00;;;;;;;0.69;80.79;101185.81;5052514;28;20033;-70
2021/03/05 05:50:58;;;;;;;11.40;6.43;;;;;;;0.66;81.16;101183.09;5052291;28;20025;-70
2021/03/05 05:53:30;;;;;;;11.47;5.70;;;;;;;0.57;80.83;101185.25;5052371;28;20080;-70
2021/03/05 05:55:55;;;;;;;13.27;7.15;;;;;;;0.43;81.48;101188.13;5052060;28;20037;-70
2021/03/05 05:58:21;;;;;;;10.63;6.07;;;;;;;0.38;81.11;101189.63;5052553;28;20047;-70
2021/03/05 06:00:46;;;;;;;11.43;6.27;;;;;;;0.29;80.65;101202.19;5052226;28;20062;-70
2021/03/05 06:03:14;;;;;;;11.43;5.80;;;;;;;0.19;81.50;101211.25;5052415;28;20037;-70
2021/03/05 06:05:39;;;;;;;11.93;6.20;;;;;;;0.12;80.93;101216.09;5052095;28;20041;-72
2021/03/05 06:08:07;;;;;;;11.10;5.73;;;;;;;-0.02;81.61;101218.94;5051565;28;20712;-71
2021/03/05 06:10:32;;;;;;;13.00;6.00;;;;;;;-0.04;81.17;101223.16;5051359;28;20064;-71
2021/03/05 06:12:57;;;;;;;9.80;5.73;;;;;;;-0.12;80.59;101234.88;5051663;28;20103;-71
2021/03/05 06:15:27;;;;;;;10.07;5.27;;;;;;;-0.15;81.55;101239.91;5051738;28;20060;-71
2021/03/05 06:17:53;;;;;;;9.57;4.73;;;;;;;-0.19;80.62;101245.75;5051267;28;20044;-71
2021/03/05 06:20:18;;;;;;;11.73;6.23;;;;;;;-0.27;81.54;101252.28;5034263;28;20025;-71
2021/03/05 06:22:46;;;;;;;12.63;5.97;;;;;;;-0.28;80.97;101247.94;5051170;28;20036;-71
2021/03/05 06:25:12;;;;;;;11.97;5.30;;;;;;;-0.31;81.42;101259.03;5047958;28;20566;-71
2021/03/05 06:27:39;;;;;;;13.63;6.10;;;;;;;-0.30;81.29;101270.28;5048993;28;20029;-71
2021/03/05 06:30:06;;;;;;;10.03;5.57;;;;;;;-0.31;81.11;101278.91;5051478;28;20025;-71
2021/03/05 06:32:40;;;;;;;11.20;5.27;;;;;;;-0.39;81.33;101287.97;5051672;28;20158;-71
2021/03/05 06:35:10;;;;;;;12.77;5.73;;;;;;;-0.32;80.56;101288.38;5043660;28;20048;-71
2021/03/05 06:37:47;;;;;;;13.83;5.57;;;;;;;-0.32;80.94;101292.66;5051473;28;20037;-70
2021/03/05 06:40:13;;;;;;;11.23;5.30;;;;;;;-0.34;81.31;101309.84;5051781;28;20057;-71
2021/03/05 06:42:55;;;;;;;9.67;4.83;;;;;;;-0.29;80.34;101311.88;5051860;28;20106;-71
2021/03/05 06:45:25;;;;;;;11.17;5.17;;;;;;;-0.33;80.48;101317.72;5051268;28;20045;-71
2021/03/05 06:48:08;;;;;;;13.17;5.73;;;;;;;-0.36;80.48;101324.47;5050906;28;20116;-71
2021/03/05 06:50:35;;;;;;;9.60;4.97;;;;;;;-0.34;80.84;101328.00;5050974;28;20044;-71
2021/03/05 06:53:09;;;;;;;11.43;5.37;;;;;;;-0.33;80.66;101337.59;5046009;28;20040;-71
2021/03/05 06:55:38;;;;;;;13.43;5.43;;;;;;;-0.35;79.47;101344.41;5051375;28;20541;-71
2021/03/05 06:58:08;;;;;;;12.40;5.10;;;;;;;-0.28;80.65;101342.19;5043649;28;20061;-71
2021/03/05 07:00:34;;;;;;;10.43;4.67;;;;;;;-0.24;78.80;101358.78;5051372;28;20522;-71
2021/03/05 07:02:59;;;;;;;8.93;4.37;;;;;;;-0.17;78.72;101350.50;5051458;28;20123;-71
2021/03/05 07:05:47;;;;;;;9.30;4.77;;;;;;;-0.21;78.85;101366.72;5051003;28;20029;-71
2021/03/05 07:08:13;;;;;;;11.27;3.90;;;;;;;-0.18;79.25;101360.78;5027059;28;20056;-71
2021/03/05 07:10:38;;;;;;;9.63;4.53;;;;;;;-0.13;78.79;101372.31;5050922;28;20048;-71
2021/03/05 07:13:03;;;;;;;9.00;4.13;;;;;;;-0.06;77.98;101377.88;5051101;28;20037;-70
2021/03/05 07:15:30;;;;;;;7.93;3.50;;;;;;;-0.06;77.78;101374.41;5050802;28;20033;-71
2021/03/05 07:17:55;;;;;;;10.53;3.83;;;;;;;0.00;77.82;101382.50;5051171;28;20033;-71
2021/03/05 07:20:20;;;;;;;10.97;3.60;;;;;;;0.01;77.49;101380.81;5051020;28;20120;-70
2021/03/05 07:22:48;;;;;;;8.27;3.90;;;;;;;-0.02;77.75;101382.41;5051095;28;20041;-71
2021/03/05 07:25:16;;;;;;;9.47;4.13;;;;;;;0.02;77.52;101392.94;5050617;28;20124;-71
2021/03/05 07:27:43;;;;;;;10.97;3.90;;;;;;;0.07;78.01;101386.28;5050931;28;20469;-71
2021/03/05 07:30:13;;;;;;;8.80;3.20;;;;;;;0.10;77.03;101387.31;5050980;28;20518;-71
2021/03/05 07:32:42;;;;;;;9.10;3.60;;;;;;;0.17;76.39;101389.41;5051016;28;20072;-71
2021/03/05 07:35:20;;;;;;;8.27;3.30;;;;;;;0.21;76.94;101395.66;5050724;28;20120;-71
2021/03/05 07:37:49;;;;;;;8.13;3.20;;;;;;;0.25;76.62;101392.38;5033176;28;20413;-71
2021/03/05 07:40:16;;;;;;;7.00;3.00;;;;;;;0.28;74.44;101392.53;5050902;28;20116;-71
2021/03/05 07:42:41;;;;;;;13.97;5.73;;;;;;;0.34;74.65;101398.06;5050946;28;20041;-71
2021/03/05 07:45:09;;;;;;;8.63;2.93;;;;;;;0.33;75.15;101403.16;5050692;28;20029;-70
2021/03/05 07:47:41;;;;;;;9.40;3.47;;;;;;;0.37;75.44;101413.78;5050927;28;20518;-71
2021/03/05 07:50:09;;;;;;;8.68;3.50;;;;;;;0.43;74.92;101408.88;5043451;28;20029;-71
2021/03/05 07:52:36;;;;;;;7.27;3.00;;;;;;;0.46;73.69;101417.63;5050818;28;20050;-71
2021/03/05 07:55:02;;;;;;;10.20;2.57;;;;;;;0.53;73.60;101424.91;5050532;28;20045;-71
2021/03/05 07:57:30;;;;;;;8.33;2.90;;;;;;;0.53;72.50;101428.41;5050803;28;20121;-71
2021/03/05 07:59:58;;;;;;;6.47;3.03;;;;;;;0.53;72.99;101436.19;5050733;28;20103;-71
2021/03/05 08:02:26;;;;;;;6.97;2.83;;;;;;;0.63;72.01;101443.63;5052239;28;20495;-71
2021/03/05 08:05:06;;;;;;;7.17;3.00;;;;;;;0.73;72.08;101442.34;5054432;28;20036;-71
2021/03/05 08:07:33;;;;;;;8.50;2.40;;;;;;;0.74;71.59;101445.84;5054576;28;20044;-71
2021/03/05 08:10:00;;;;;;;13.03;5.60;;;;;;;0.77;72.18;101449.47;5054258;28;20033;-71
2021/03/05 08:12:45;;;;;;;9.00;4.00;;;;;;;0.81;72.74;101448.81;5052755;28;20044;-71
2021/03/05 08:15:10;;;;;;;8.83;3.40;;;;;;;0.88;72.28;101456.06;5052596;28;20535;-71
2021/03/05 08:17:49;;;;;;;5.87;2.30;;;;;;;0.96;69.43;101452.94;5046107;28;20108;-71
2021/03/05 08:20:17;;;;;;;4.40;1.93;;;;;;;0.96;69.19;101452.94;5054270;28;20431;-71
2021/03/05 08:23:03;;;;;;;7.70;2.77;;;;;;;1.04;68.69;101462.00;5054042;28;20040;-71
2021/03/05 08:25:48;;;;;;;6.60;2.40;;;;;;;1.07;69.11;101467.34;5053750;28;20041;-71
2021/03/05 08:28:39;;;;;;;9.40;2.70;;;;;;;1.16;69.69;101467.78;5047892;28;20076;-71
2021/03/05 08:31:34;;;;;;;6.53;2.40;;;;;;;1.21;68.86;101468.91;5046440;28;20029;-71
2021/03/05 08:34:25;;;;;;;8.30;2.53;;;;;;;1.28;67.57;101472.66;5045844;28;20059;-71
2021/03/05 08:36:51;;;;;;;7.30;2.40;;;;;;;1.34;68.92;101467.75;5053795;28;20106;-71
2021/03/05 08:39:22;;;;;;;6.20;2.40;;;;;;;1.37;68.10;101467.00;5053895;28;20037;-71
2021/03/05 08:41:48;;;;;;;10.70;4.20;;;;;;;1.41;68.98;101482.81;5053926;28;20035;-71
2021/03/05 08:44:14;;;;;;;5.27;1.97;;;;;;;1.52;65.76;101479.00;5053866;28;20049;-71
2021/03/05 08:46:39;;;;;;;4.83;1.83;;;;;;;1.58;64.18;101474.91;5053568;28;20052;-71
2021/03/05 08:49:05;;;;;;;3.80;1.37;;;;;;;1.54;65.22;101474.72;5057399;28;20040;-71
2021/03/05 08:51:34;;;;;;;7.73;2.27;;;;;;;1.60;65.98;101470.63;5057694;28;20045;-71
2021/03/05 08:53:59;;;;;;;4.90;2.07;;;;;;;1.68;65.28;101480.59;5053496;28;20045;-71
2021/03/05 08:56:27;;;;;;;10.18;1.70;;;;;;;1.71;63.24;101483.31;5053354;28;20040;-71
2021/03/05 08:59:03;;;;;;;6.23;1.70;;;;;;;1.74;64.00;101480.84;5053461;28;20056;-71
2021/03/05 09:01:40;;;;;;;4.93;2.10;;;;;;;1.81;63.48;101486.31;5053285;28;20037;-71
2021/03/05 09:04:10;;;;;;;5.70;1.50;;;;;;;1.84;63.63;101483.88;5046054;28;20495;-71
2021/03/05 09:06:36;;;;;;;6.30;1.92;;;;;;;1.83;61.91;101482.06;5053080;28;20045;-70
2021/03/05 09:09:09;;;;;;;6.20;1.40;;;;;;;1.96;61.15;101490.53;5053266;28;20039;-71
2021/03/05 09:11:34;;;;;;;6.35;2.58;;;;;;;2.06;63.60;101483.97;5053216;28;20029;-71
2021/03/05 09:14:00;;;;;;;5.13;2.40;;;;;;;2.17;63.92;101494.84;5044513;28;20048;-71
2021/03/05 09:16:25;;;;;;;6.15;1.80;;;;;;;2.25;62.64;101489.97;5052892;28;20128;-71
2021/03/05 09:18:53;;;;;;;5.00;1.70;;;;;;;2.35;62.18;101479.13;5053105;28;20087;-71
2021/03/05 09:21:19;;;;;;;4.30;1.33;;;;;;;2.42;60.78;101483.78;5053135;28;20032;-71
2021/03/05 09:23:47;;;;;;;3.88;1.40;;;;;;;2.44;61.14;101489.03;5052999;28;20044;-71
2021/03/05 09:26:16;;;;;;;6.03;1.55;;;;;;;2.47;59.89;101482.25;5035007;28;20039;-71
2021/03/05 09:28:44;;;;;;;8.02;1.73;;;;;;;2.60;60.34;101483.66;5053006;28;20033;-71
2021/03/05 09:31:11;;;;;;;6.10;1.63;;;;;;;2.71;60.57;101491.94;5052972;28;20105;-71
2021/03/05 09:33:39;;;;;;;5.07;1.40;;;;;;;2.74;57.07;101498.16;5052790;28;20041;-71
2021/03/05 09:36:16;;;;;;;3.72;1.00;;;;;;;2.81;55.18;101505.41;5052644;28;20040;-71
2021/03/05 09:38:46;;;;;;;2.47;0.90;;;;;;;2.87;55.27;101509.09;5052809;28;20044;-71
2021/03/05 09:41:45;;;;;;;5.07;1.52;;;;;;;2.99;57.05;101500.03;5052785;28;20136;-71
2021/03/05 09:44:11;;;;;;;2.72;0.98;;;;;;;3.15;57.00;101505.88;5045839;28;20041;-71
2021/03/05 09:46:41;;;;;;;3.35;1.08;;;;;;;3.19;54.12;101500.81;5052274;28;20514;-71
2021/03/05 09:49:27;;;;;;;4.90;1.25;;;;;;;3.40;54.39;101508.59;5052748;28;20029;-71
2021/03/05 09:51:53;;;;;;;3.00;1.13;;;;;;;3.67;52.65;101503.53;5052408;28;20480;-71
2021/03/05 09:54:36;;;;;;;16.02;8.30;;;;;;;4.10;52.04;101506.81;5052492;28;20107;-71
2021/03/05 09:57:01;;;;;;;;;;;;;;;4.40;50.91;101507.00;5044754;28;20517;-72
2021/03/05 09:59:43;;;;;;;;;;;;;;;4.56;49.19;101511.94;5052874;28;19912;-71
2021/03/05 10:02:08;;;;;;;;;;;;;;;4.76;47.87;101525.66;5045788;28;19958;-71
2021/03/05 10:04:40;;;;;;;;;;;;;;;4.73;47.89;101520.34;5052771;28;19916;-71
2021/03/05 10:07:06;;;;;;;;;;;;;;;4.99;48.33;101522.94;5045137;28;19913;-71
2021/03/05 10:09:31;;;;;;;;;;;;;;;5.08;46.33;101531.06;5052688;28;19913;-71
2021/03/05 10:11:56;;;;;;;;;;;;;;;4.89;44.80;101528.69;5052666;28;19917;-71
2021/03/05 10:14:25;;;;;;;;;;;;;;;4.53;45.10;101527.53;5052601;28;19920;-71
2021/03/05 10:16:51;;;;;;;;;;;;;;;4.61;45.55;101535.59;5052296;28;20007;-71
2021/03/05 10:19:18;;;;;;;;;;;;;;;4.67;44.74;101533.22;5052420;28;20017;-72
2021/03/05 10:21:44;;;;;;;;;;;;;;;4.57;45.75;101537.22;5052425;28;19917;-71
2021/03/05 10:24:11;;;;;;;;;;;;;;;4.58;46.66;101548.56;5051957;28;20401;-71
2021/03/05 10:26:37;;;;;;;;;;;;;;;4.63;44.48;101549.63;5051842;28;19998;-71
2021/03/05 10:29:04;;;;;;;;;;;;;;;4.44;45.72;101547.22;5052334;28;20481;-72
2021/03/05 10:31:42;;;;;;;;;;;;;;;4.16;45.35;101557.56;5052264;28;19935;-71
2021/03/05 10:34:24;;;;;;;;;;;;;;;3.70;46.05;101560.19;5045021;28;19917;-71
2021/03/05 10:36:50;;;;;;;;;;;;;;;3.61;45.92;101571.16;5052017;28;20302;-71
2021/03/05 10:39:15;;;;;;;;;;;;;;;3.63;46.59;101571.22;5052160;28;19913;-71
2021/03/05 10:41:48;;;;;;;;;;;;;;;3.85;46.69;101563.41;5052122;28;19916;-71
2021/03/05 10:44:13;;;;;;;;;;;;;;;4.16;46.84;101562.78;5052082;28;20283;-71
2021/03/05 10:46:39;;;;;;;;;;;;;;;4.55;46.72;101570.28;5051746;28;19916;-72
2021/03/05 10:49:04;;;;;;;;;;;;;;;4.94;45.00;101558.50;5054657;28;20290;-72
2021/03/05 10:51:29;;;;;;;;;;;;;;;5.14;41.44;101564.41;5051941;28;19913;-71
2021/03/05 10:53:54;;;;;;;;;;;;;;;4.58;42.71;101573.03;5051812;28;19927;-72
2021/03/05 10:56:19;;;;;;;;;;;;;;;4.47;42.32;101578.69;5051591;28;19958;-72
2021/03/05 10:58:45;;;;;;;;;;;;;;;4.17;41.84;101589.81;5051802;28;19913;-71
2021/03/05 11:01:10;;;;;;;;;;;;;;;4.07;43.68;101585.09;5051664;28;19917;-71
2021/03/05 11:03:35;;;;;;;;;;;;;;;4.05;43.30;101584.13;5051699;28;19913;-71
2021/03/05 11:06:00;;;;;;;;;;;;;;;4.30;43.58;101571.16;5051522;28;19920;-71
2021/03/05 11:08:26;;;;;;;;;;;;;;;4.69;41.85;101581.22;5051682;28;19913;-71
2021/03/05 11:10:51;;;;;;;;;;;;;;;5.05;42.02;101572.81;5051624;28;20005;-71
2021/03/05 11:13:16;;;;;;;;;;;;;;;5.48;41.58;101582.97;5051779;28;20390;-71
2021/03/05 11:15:41;;;;;;;;;;;;;;;5.90;41.56;101579.00;5051253;28;19947;-71
2021/03/05 11:18:07;;;;;;;;;;;;;;;6.26;40.15;101576.59;5051718;28;19997;-72
2021/03/05 11:20:32;;;;;;;;;;;;;;;6.57;40.49;101572.16;5051324;28;20308;-72
2021/03/05 11:22:57;;;;;;;;;;;;;;;6.30;38.56;101575.81;5051514;28;19912;-72
2021/03/05 11:25:22;;;;;;;;;;;;;;;6.09;38.79;101588.31;5051266;28;19924;-71
2021/03/05 11:27:48;;;;;;;;;;;;;;;5.58;39.48;101592.00;5051484;28;19915;-71
2021/03/05 11:30:13;;;;;;;;;;;;;;;5.47;40.29;101596.88;5051397;28;19919;-71
2021/03/05 11:32:39;;;;;;;;;;;;;;;5.50;39.90;101585.59;5033611;28;19927;-71
2021/03/05 11:35:04;;;;;;;;;;;;;;;5.34;40.38;101583.34;5051160;28;20004;-71
2021/03/05 11:37:30;;;;;;;;;;;;;;;5.40;40.34;101583.56;5055020;28;19924;-71
2021/03/05 11:39:55;;;;;;;;;;;;;;;5.48;40.89;101587.31;5055510;28;19920;-71
2021/03/05 11:42:21;;;;;;;;;;;;;;;5.85;40.60;101572.72;5055649;28;19916;-71